createdAt,value
2022-09-12T00:40:11.365Z,100.00
2022-09-12T00:41:28.697Z,100.00
2022-09-12T00:42:42.076Z,100.00
2022-09-12T00:44:02.872Z,100.00
2022-09-12T01:34:28.505Z,100.00
2022-09-12T01:36:01.920Z,100.00
2022-09-12T01:37:41.649Z,100.00
2022-09-12T01:38:59.484Z,100.00
2022-09-12T01:40:49.352Z,100.00
2022-09-12T01:42:18.845Z,100.00
2022-09-12T01:43:36.068Z,100.00
2022-09-12T01:45:25.921Z,100.00
2022-09-12T01:46:45.655Z,100.00
2022-09-12T01:48:13.989Z,100.00
2022-09-12T01:49:33.450Z,100.00
2022-09-12T01:50:47.933Z,100.00
2022-09-12T01:52:09.192Z,100.00
2022-09-12T01:53:44.202Z,100.00
2022-09-12T01:55:09.956Z,100.00
2022-09-12T01:56:22.543Z,100.00
2022-09-12T01:57:53.002Z,100.00
2022-09-12T01:59:14.512Z,100.00
2022-09-12T02:00:18.466Z,100.00
2022-09-12T02:03:48.740Z,100.00
2022-09-12T02:05:16.503Z,100.00
2022-09-12T02:06:36.214Z,100.00
2022-09-12T02:07:52.005Z,99.74
2022-09-12T02:09:06.664Z,99.87
2022-09-12T02:10:22.725Z,99.76
2022-09-12T02:11:26.607Z,99.69
2022-09-12T02:12:41.094Z,99.59
2022-09-12T02:14:04.213Z,99.72
2022-09-12T02:15:10.580Z,99.65
2022-09-12T02:16:40.763Z,99.61
2022-09-12T02:17:49.484Z,99.60
2022-09-12T02:19:06.177Z,99.58
2022-09-12T02:20:47.987Z,99.49
2022-09-12T02:22:02.773Z,99.01
2022-09-12T02:23:19.466Z,98.89
2022-09-12T02:24:30.336Z,98.87
2022-09-12T02:25:40.352Z,98.85
2022-09-12T02:27:14.778Z,99.06
2022-09-12T02:28:40.861Z,99.25
2022-09-12T02:29:46.021Z,99.18
2022-09-12T02:31:25.632Z,99.20
2022-09-12T02:32:38.307Z,99.18
2022-09-12T02:34:21.520Z,98.99
2022-09-12T02:35:45.935Z,99.00
2022-09-12T02:37:13.308Z,99.12
2022-09-12T02:38:33.912Z,99.05
2022-09-12T02:39:38.859Z,98.65
2022-09-12T02:40:44.813Z,98.83
2022-09-12T02:41:53.192Z,98.93
2022-09-12T02:42:57.491Z,98.92
2022-09-12T02:44:02.030Z,99.07
2022-09-12T02:45:06.785Z,99.40
2022-09-12T02:46:28.928Z,99.50
2022-09-12T02:47:42.261Z,99.24
2022-09-12T02:48:46.092Z,99.26
2022-09-12T02:49:50.183Z,99.36
2022-09-12T02:50:54.615Z,99.53
2022-09-12T02:51:59.516Z,99.69
2022-09-12T02:53:05.814Z,99.47
2022-09-12T02:54:12.007Z,99.40
2022-09-12T02:55:16.970Z,99.71
2022-09-12T02:56:31.515Z,100.00
2022-09-12T02:57:35.005Z,99.75
2022-09-12T02:58:38.957Z,99.87
2022-09-12T02:59:42.861Z,99.93
2022-09-12T03:01:01.775Z,100.00
2022-09-12T03:02:32.460Z,100.00
2022-09-12T03:04:07.597Z,100.00
2022-09-12T03:05:23.370Z,100.00
2022-09-12T03:07:02.459Z,100.00
2022-09-12T03:08:26.765Z,100.00
2022-09-12T03:10:17.873Z,100.00
2022-09-12T03:11:58.421Z,100.00
2022-09-12T03:13:23.396Z,100.00
2022-09-12T03:15:01.882Z,100.00
2022-09-12T03:16:51.338Z,100.00
2022-09-12T03:18:19.496Z,100.00
2022-09-12T03:19:35.739Z,100.00
2022-09-12T03:21:19.970Z,100.00
2022-09-12T03:22:48.154Z,100.00
2022-09-12T03:24:13.256Z,100.00
2022-09-12T03:26:05.907Z,100.00
2022-09-12T03:27:18.819Z,100.00
2022-09-12T03:28:23.714Z,100.00
2022-09-12T03:29:29.604Z,100.00
2022-09-12T03:30:52.064Z,100.00
2022-09-12T03:31:58.659Z,100.00
2022-09-12T03:33:02.228Z,100.00
2022-09-12T03:34:07.958Z,100.00
2022-09-12T03:35:14.257Z,100.00
2022-09-12T03:36:28.333Z,100.00
2022-09-12T03:37:31.885Z,100.00
2022-09-12T03:38:35.513Z,100.00
2022-09-12T03:39:39.327Z,100.00
2022-09-12T03:40:43.500Z,100.00
2022-09-12T03:41:47.041Z,100.00
2022-09-12T03:42:50.517Z,100.00
2022-09-12T03:43:54.197Z,100.00
2022-09-12T03:44:57.945Z,100.00
2022-09-12T03:46:01.511Z,100.00
2022-09-12T03:47:09.242Z,100.00
2022-09-12T03:48:14.647Z,100.00
2022-09-12T03:49:18.649Z,100.00
2022-09-12T03:50:22.279Z,100.00
2022-09-12T03:51:25.834Z,100.00
2022-09-12T03:52:29.320Z,100.00
2022-09-12T03:53:33.764Z,100.00
2022-09-12T03:54:37.450Z,100.00
2022-09-12T03:55:40.974Z,100.00
2022-09-12T03:56:45.146Z,100.00
2022-09-12T03:57:48.596Z,100.00
2022-09-12T03:58:52.080Z,100.00
2022-09-12T03:59:55.620Z,100.00
2022-09-12T04:00:59.308Z,100.00
2022-09-12T04:02:03.108Z,100.00
2022-09-12T04:03:07.626Z,100.00
2022-09-12T04:04:12.320Z,100.00
2022-09-12T04:05:16.752Z,100.00
2022-09-12T04:06:23.085Z,100.00
2022-09-12T04:07:27.079Z,100.00
2022-09-12T04:08:30.723Z,100.00
2022-09-12T04:09:34.320Z,100.00
2022-09-12T04:10:37.865Z,100.00
2022-09-12T04:11:41.362Z,100.00
2022-09-12T04:12:45.333Z,100.00
2022-09-12T04:13:49.569Z,100.00
2022-09-12T04:14:53.641Z,100.00
2022-09-12T04:16:01.729Z,100.00
2022-09-12T04:17:06.724Z,100.00
2022-09-12T04:18:10.612Z,100.00
2022-09-12T04:19:14.504Z,100.00
2022-09-12T04:20:18.272Z,100.00
2022-09-12T04:21:22.304Z,100.00
2022-09-12T04:22:25.943Z,100.00
2022-09-12T04:23:29.902Z,100.00
2022-09-12T04:24:33.622Z,100.00
2022-09-12T04:25:37.205Z,100.00
2022-09-12T04:26:41.157Z,100.00
2022-09-12T04:27:44.647Z,100.00
2022-09-12T04:28:48.855Z,100.00
2022-09-12T04:30:07.077Z,100.00
2022-09-12T04:31:22.691Z,100.00
2022-09-12T04:32:26.375Z,100.00
2022-09-12T04:33:34.500Z,100.00
2022-09-12T04:34:38.273Z,100.00
2022-09-12T04:35:43.011Z,100.00
2022-09-12T04:36:51.147Z,100.00
2022-09-12T04:37:54.750Z,100.00
2022-09-12T04:38:58.687Z,100.00
2022-09-12T04:40:02.935Z,100.00
2022-09-12T04:41:18.715Z,100.00
2022-09-12T04:42:22.994Z,100.00
2022-09-12T04:43:29.452Z,100.00
2022-09-12T04:44:32.943Z,100.00
2022-09-12T04:45:36.760Z,100.00
2022-09-12T04:46:46.136Z,100.00
2022-09-12T04:47:49.790Z,100.00
2022-09-12T04:48:56.865Z,100.00
2022-09-12T04:50:00.698Z,100.00
2022-09-12T04:51:26.176Z,100.00
2022-09-12T04:52:29.731Z,100.00
2022-09-12T04:53:33.223Z,100.00
2022-09-12T04:54:38.033Z,100.00
2022-09-12T04:55:41.573Z,100.00
2022-09-12T04:56:49.123Z,100.00
2022-09-12T04:57:53.167Z,100.00
2022-09-12T04:59:01.784Z,100.00
2022-09-12T05:00:07.370Z,100.00
2022-09-12T05:01:20.701Z,100.00
2022-09-12T05:02:24.516Z,100.00
2022-09-12T05:03:28.731Z,100.00
2022-09-12T05:04:36.495Z,100.00
2022-09-12T05:05:39.997Z,100.00
2022-09-12T05:06:44.442Z,100.00
2022-09-12T05:07:49.336Z,100.00
2022-09-12T05:08:53.832Z,100.00
2022-09-12T05:09:57.342Z,100.00
2022-09-12T05:11:11.786Z,100.00
2022-09-12T05:12:25.414Z,99.98
2022-09-12T05:13:29.227Z,100.00
2022-09-12T05:14:35.077Z,99.99
2022-09-12T05:15:39.619Z,99.96
2022-09-12T05:16:47.199Z,99.80
2022-09-12T05:17:52.581Z,99.86
2022-09-12T05:18:58.638Z,99.65
2022-09-12T05:20:03.316Z,99.33
2022-09-12T05:21:11.707Z,99.48
2022-09-12T05:22:15.157Z,98.99
2022-09-12T05:23:18.755Z,98.84
2022-09-12T05:24:22.626Z,98.15
2022-09-12T05:25:26.484Z,97.80
2022-09-12T05:26:30.159Z,96.84
2022-09-12T05:27:33.973Z,96.38
2022-09-12T05:28:39.346Z,96.02
2022-09-12T05:29:43.410Z,95.17
2022-09-12T05:30:47.854Z,94.79
2022-09-12T05:31:52.938Z,93.78
2022-09-12T05:32:56.489Z,93.42
2022-09-12T05:34:00.684Z,93.18
2022-09-12T05:35:04.577Z,92.92
2022-09-12T05:36:13.340Z,92.06
2022-09-12T05:37:17.352Z,91.88
2022-09-12T05:38:20.868Z,91.49
2022-09-12T05:39:24.771Z,90.97
2022-09-12T05:40:28.461Z,90.70
2022-09-12T05:41:34.525Z,89.98
2022-09-12T05:42:38.018Z,89.07
2022-09-12T05:43:43.701Z,88.63
2022-09-12T05:44:47.217Z,87.86
2022-09-12T05:45:51.073Z,87.34
2022-09-12T05:46:54.663Z,86.94
2022-09-12T05:47:58.166Z,86.57
2022-09-12T05:49:08.886Z,85.89
2022-09-12T05:50:12.552Z,85.81
2022-09-12T05:51:23.684Z,84.57
2022-09-12T05:52:27.345Z,83.95
2022-09-12T05:53:31.827Z,83.34
2022-09-12T05:54:35.496Z,83.69
2022-09-12T05:55:38.948Z,83.43
2022-09-12T05:56:44.873Z,83.28
2022-09-12T05:57:48.514Z,82.48
2022-09-12T05:59:02.084Z,82.15
2022-09-12T06:00:09.777Z,81.32
2022-09-12T06:01:19.493Z,80.92
2022-09-12T06:02:23.184Z,79.98
2022-09-12T06:03:26.794Z,80.18
2022-09-12T06:04:32.078Z,80.15
2022-09-12T06:05:36.076Z,79.31
2022-09-12T06:06:45.196Z,78.10
2022-09-12T06:07:49.038Z,77.62
2022-09-12T06:08:58.024Z,76.25
2022-09-12T06:10:01.700Z,75.47
2022-09-12T06:11:07.597Z,75.00
2022-09-12T06:12:12.000Z,74.62
2022-09-12T06:13:18.514Z,73.75
2022-09-12T06:14:22.539Z,73.24
2022-09-12T06:15:25.996Z,72.70
2022-09-12T06:16:33.417Z,73.02
2022-09-12T06:17:40.027Z,72.98
2022-09-12T06:18:53.625Z,72.88
2022-09-12T06:19:57.287Z,72.15
2022-09-12T06:21:08.295Z,72.33
2022-09-12T06:22:12.682Z,72.95
2022-09-12T06:23:16.865Z,72.18
2022-09-12T06:24:21.888Z,72.20
2022-09-12T06:25:25.838Z,71.62
2022-09-12T06:26:30.619Z,70.82
2022-09-12T06:27:34.090Z,70.22
2022-09-12T06:28:41.231Z,69.48
2022-09-12T06:29:44.864Z,68.61
2022-09-12T06:30:49.043Z,67.43
2022-09-12T06:31:52.496Z,67.50
2022-09-12T06:32:57.102Z,66.71
2022-09-12T06:34:05.876Z,66.14
2022-09-12T06:35:09.537Z,65.33
2022-09-12T06:36:21.149Z,65.77
2022-09-12T06:37:24.589Z,64.32
2022-09-12T06:38:28.077Z,64.95
2022-09-12T06:39:32.668Z,64.90
2022-09-12T06:40:44.764Z,64.12
2022-09-12T06:41:51.287Z,64.09
2022-09-12T06:42:54.713Z,64.12
2022-09-12T06:44:00.459Z,63.79
2022-09-12T06:45:05.629Z,62.97
2022-09-12T06:46:11.800Z,61.71
2022-09-12T06:47:15.352Z,62.45
2022-09-12T06:48:19.129Z,61.90
2022-09-12T06:49:22.723Z,60.97
2022-09-12T06:50:27.089Z,60.60
2022-09-12T06:51:31.001Z,60.32
2022-09-12T06:52:36.048Z,59.65
2022-09-12T06:53:40.067Z,59.83
2022-09-12T06:54:43.964Z,59.24
2022-09-12T06:55:48.916Z,59.31
2022-09-12T06:56:55.429Z,59.43
2022-09-12T06:57:59.070Z,60.24
2022-09-12T06:59:02.578Z,59.82
2022-09-12T07:00:06.998Z,60.46
2022-09-12T07:01:17.792Z,59.78
2022-09-12T07:02:22.010Z,59.40
2022-09-12T07:03:25.601Z,58.45
2022-09-12T07:04:29.692Z,58.29
2022-09-12T07:05:37.903Z,58.35
2022-09-12T07:06:44.240Z,57.85
2022-09-12T07:07:48.542Z,58.21
2022-09-12T07:08:52.443Z,58.16
2022-09-12T07:09:57.783Z,58.05
2022-09-12T07:11:12.940Z,58.52
2022-09-12T07:12:17.301Z,58.62
2022-09-12T07:13:23.449Z,58.57
2022-09-12T07:14:27.128Z,58.61
2022-09-12T07:15:31.443Z,58.85
2022-09-12T07:16:38.788Z,58.56
2022-09-12T07:17:42.571Z,58.23
2022-09-12T07:18:59.937Z,57.96
2022-09-12T07:20:03.916Z,57.82
2022-09-12T07:21:15.340Z,57.86
2022-09-12T07:22:19.211Z,58.23
2022-09-12T07:23:22.824Z,58.71
2022-09-12T07:24:29.711Z,59.01
2022-09-12T07:25:35.594Z,59.29
2022-09-12T07:26:42.305Z,59.10
2022-09-12T07:27:50.574Z,59.95
2022-09-12T07:29:12.779Z,59.97
2022-09-12T07:30:20.704Z,59.43
2022-09-12T07:31:27.430Z,58.12
2022-09-12T07:32:30.957Z,57.20
2022-09-12T07:33:35.574Z,54.35
2022-09-12T07:34:39.434Z,53.50
2022-09-12T07:35:43.233Z,52.13
2022-09-12T07:36:46.676Z,51.42
2022-09-12T07:37:50.147Z,50.51
2022-09-12T07:38:59.010Z,49.12
2022-09-12T07:40:11.555Z,49.10
2022-09-12T07:41:21.439Z,49.04
2022-09-12T07:42:25.236Z,49.34
2022-09-12T07:43:29.860Z,48.87
2022-09-12T07:44:33.498Z,49.48
2022-09-12T07:45:37.147Z,50.30
2022-09-12T07:46:40.951Z,50.23
2022-09-12T07:47:44.507Z,49.50
2022-09-12T07:48:53.184Z,48.85
2022-09-12T07:49:57.002Z,48.60
2022-09-12T07:51:04.114Z,46.72
2022-09-12T07:52:07.899Z,46.26
2022-09-12T07:53:11.783Z,45.37
2022-09-12T07:54:18.896Z,44.99
2022-09-12T07:55:30.088Z,44.82
2022-09-12T07:56:38.684Z,44.43
2022-09-12T07:58:00.042Z,43.65
2022-09-12T08:00:49.093Z,41.91
2022-09-12T08:02:16.493Z,40.86
2022-09-12T08:03:22.547Z,41.41
2022-09-12T08:04:26.447Z,40.11
2022-09-12T08:05:38.671Z,39.94
2022-09-12T08:06:42.472Z,39.54
2022-09-12T08:07:49.911Z,39.11
2022-09-12T08:08:57.641Z,38.46
2022-09-12T08:10:01.652Z,38.15
2022-09-12T08:11:12.846Z,37.16
2022-09-12T08:12:18.416Z,36.82
2022-09-12T08:13:28.493Z,35.57
2022-09-12T08:14:32.277Z,35.63
2022-09-12T08:15:36.041Z,35.71
2022-09-12T08:16:42.789Z,34.87
2022-09-12T08:17:46.696Z,34.46
2022-09-12T08:18:51.567Z,34.65
2022-09-12T08:19:55.851Z,34.96
2022-09-12T08:21:09.709Z,34.79
2022-09-12T08:24:39.039Z,36.96
2022-09-12T08:28:14.914Z,37.21
2022-09-12T08:29:23.514Z,36.78
2022-09-12T08:30:27.603Z,36.93
2022-09-12T08:31:36.616Z,35.90
2022-09-12T08:32:48.212Z,35.46
2022-09-12T08:34:10.253Z,34.98
2022-09-12T08:35:15.547Z,33.88
2022-09-12T08:36:23.278Z,34.15
2022-09-12T08:37:30.695Z,33.13
2022-09-12T08:38:38.460Z,33.81
2022-09-12T08:39:46.645Z,33.94
2022-09-12T08:41:24.735Z,33.69
2022-09-12T08:46:04.089Z,31.30
2022-09-12T08:48:08.021Z,30.67
2022-09-12T08:52:52.294Z,29.86
2022-09-12T08:57:34.343Z,31.96
2022-09-12T09:00:31.821Z,31.55
2022-09-12T09:02:12.927Z,31.99
2022-09-12T09:04:04.378Z,30.93
2022-09-12T09:05:39.619Z,29.83
2022-09-12T09:07:17.365Z,28.97
2022-09-12T09:08:44.037Z,28.96
2022-09-12T09:10:02.453Z,28.59
2022-09-12T09:11:48.504Z,28.20
2022-09-12T09:13:45.032Z,28.27
2022-09-12T09:15:25.150Z,27.86
2022-09-12T09:16:45.820Z,28.06
2022-09-12T09:18:21.372Z,27.88
2022-09-12T09:19:38.147Z,27.99
2022-09-12T09:21:31.260Z,28.12
2022-09-12T09:22:56.499Z,28.56
2022-09-12T09:25:00.419Z,29.28
2022-09-12T09:26:36.660Z,30.00
2022-09-12T09:29:00.399Z,31.00
2022-09-12T09:32:41.359Z,32.35
2022-09-12T09:33:58.269Z,33.25
2022-09-12T09:35:43.780Z,34.09
2022-09-12T09:37:23.422Z,34.48
2022-09-12T09:38:51.416Z,34.91
2022-09-12T09:40:37.594Z,35.30
2022-09-12T09:43:14.394Z,35.78
2022-09-12T11:10:24.516Z,42.82
2022-09-12T11:12:24.583Z,43.12
2022-09-12T11:14:21.937Z,43.25
2022-09-12T11:16:20.233Z,43.20
2022-09-12T11:17:47.974Z,43.09
2022-09-12T11:19:19.253Z,43.23
2022-09-12T11:21:12.488Z,43.31
2022-09-12T11:23:12.521Z,42.76
2022-09-12T11:24:47.494Z,42.75
2022-09-12T11:26:31.498Z,42.82
2022-09-12T11:27:43.827Z,43.13
2022-09-12T11:29:14.329Z,42.94
2022-09-12T11:30:18.966Z,43.09
2022-09-12T11:32:09.041Z,43.22
2022-09-12T11:33:42.959Z,42.95
2022-09-12T11:35:18.900Z,43.29
2022-09-12T11:37:09.861Z,43.32
2022-09-12T11:38:23.351Z,43.58
2022-09-12T11:39:40.237Z,43.78
2022-09-12T11:40:59.661Z,43.61
2022-09-12T11:42:13.159Z,43.64
2022-09-12T11:44:02.686Z,43.87
2022-09-12T11:45:24.765Z,44.23
2022-09-12T11:46:35.146Z,44.21
2022-09-12T11:47:50.034Z,43.76
2022-09-12T11:49:15.656Z,43.63
2022-09-12T11:50:32.685Z,43.60
2022-09-12T11:51:58.233Z,43.62
2022-09-12T11:53:31.618Z,43.69
2022-09-12T11:55:03.909Z,43.32
2022-09-12T11:56:17.998Z,43.07
2022-09-12T11:57:49.102Z,43.32
2022-09-12T11:59:04.827Z,42.97
2022-09-12T12:00:51.217Z,42.96
2022-09-12T12:02:00.284Z,42.52
2022-09-12T12:03:20.879Z,42.28
2022-09-12T12:04:39.820Z,42.42
2022-09-12T12:05:55.462Z,42.28
2022-09-12T12:07:11.832Z,42.19
2022-09-12T12:08:16.948Z,42.30
2022-09-12T12:09:21.035Z,42.48
2022-09-12T12:10:32.094Z,42.47
2022-09-12T12:12:08.320Z,42.04
2022-09-12T12:13:47.169Z,42.26
2022-09-12T12:14:56.014Z,42.07
2022-09-12T12:16:15.832Z,42.11
2022-09-12T12:17:26.054Z,42.41
2022-09-12T12:18:33.126Z,42.24
2022-09-12T12:19:38.568Z,42.38
2022-09-12T12:20:42.986Z,42.23
2022-09-12T12:21:52.053Z,41.77
2022-09-12T12:22:57.021Z,41.70
2022-09-12T12:24:09.266Z,41.94
2022-09-12T12:25:12.649Z,41.64
2022-09-12T12:26:58.222Z,41.63
2022-09-12T12:28:02.333Z,41.67
2022-09-12T12:29:18.457Z,41.39
2022-09-12T12:30:31.161Z,41.35
2022-09-12T12:32:09.730Z,41.70
2022-09-12T12:33:13.427Z,41.77
2022-09-12T12:34:33.236Z,41.68
2022-09-12T12:35:37.242Z,41.75
2022-09-12T12:36:43.508Z,41.65
2022-09-12T12:37:54.574Z,41.39
2022-09-12T12:38:59.036Z,41.47
2022-09-12T12:40:23.480Z,40.94
2022-09-12T12:41:45.453Z,40.93
2022-09-12T12:42:49.019Z,41.02
2022-09-12T12:43:56.572Z,41.21
2022-09-12T12:45:24.482Z,40.97
2022-09-12T12:46:29.658Z,41.46
2022-09-12T12:47:39.472Z,41.36
2022-09-12T12:49:25.067Z,41.32
2022-09-12T12:50:32.581Z,41.49
2022-09-12T12:51:57.757Z,41.66
2022-09-12T12:53:27.892Z,41.69
2022-09-12T12:54:55.298Z,41.56
2022-09-12T12:55:58.979Z,41.31
2022-09-12T12:57:17.690Z,41.15
2022-09-12T12:58:48.193Z,40.96
2022-09-12T13:00:25.440Z,40.67
2022-09-12T13:01:30.898Z,41.10
2022-09-12T13:02:50.330Z,40.93
2022-09-12T13:04:04.726Z,40.78
2022-09-12T13:05:22.053Z,40.76
2022-09-12T13:06:55.121Z,40.74
2022-09-12T13:08:28.173Z,41.05
2022-09-12T13:09:48.215Z,40.69
2022-09-12T13:11:08.457Z,40.75
2022-09-12T13:12:23.987Z,40.68
2022-09-12T13:13:41.009Z,40.86
2022-09-12T13:14:51.725Z,40.71
2022-09-12T13:15:55.681Z,41.00
2022-09-12T13:17:13.761Z,41.34
2022-09-12T13:18:26.708Z,41.22
2022-09-12T13:19:36.914Z,41.05
2022-09-12T13:21:10.065Z,41.23
2022-09-12T13:22:14.591Z,41.04
2022-09-12T13:23:31.353Z,41.06
2022-09-12T13:24:49.174Z,40.08
2022-09-12T13:25:58.685Z,40.47
2022-09-12T13:27:02.998Z,40.48
2022-09-12T13:28:10.839Z,40.39
2022-09-12T13:29:24.054Z,39.92
2022-09-12T13:30:32.242Z,40.34
2022-09-12T13:31:36.174Z,40.44
2022-09-12T13:32:41.538Z,40.75
2022-09-12T13:34:01.716Z,40.68
2022-09-12T13:35:19.705Z,40.54
2022-09-12T13:36:51.803Z,40.56
2022-09-12T13:38:23.854Z,40.45
2022-09-12T13:39:46.327Z,40.34
2022-09-12T13:41:36.646Z,40.32
2022-09-12T13:43:16.512Z,40.05
2022-09-12T13:44:30.100Z,40.45
2022-09-12T13:45:39.635Z,40.38
2022-09-12T13:46:44.236Z,40.41
2022-09-12T13:47:58.910Z,40.32
2022-09-12T13:49:34.143Z,39.81
2022-09-12T13:50:48.953Z,39.72
2022-09-12T13:52:07.011Z,39.44
2022-09-12T13:53:22.630Z,39.35
2022-09-12T13:54:27.522Z,39.51
2022-09-12T13:55:56.510Z,39.48
2022-09-12T13:57:02.864Z,39.53
2022-09-12T13:58:26.592Z,39.66
2022-09-12T13:59:39.949Z,39.70
2022-09-12T14:00:44.338Z,39.62
2022-09-12T14:01:49.200Z,39.77
2022-09-12T14:03:13.282Z,39.59
2022-09-12T14:04:56.823Z,39.99
2022-09-12T14:06:01.491Z,40.01
2022-09-12T14:07:26.414Z,40.40
2022-09-12T14:08:31.755Z,40.18
2022-09-12T14:09:43.801Z,40.34
2022-09-12T14:10:51.472Z,40.62
2022-09-12T14:12:00.058Z,40.69
2022-09-12T14:13:23.689Z,40.88
2022-09-12T14:14:44.039Z,40.95
2022-09-12T14:15:52.624Z,40.92
2022-09-12T14:16:56.282Z,40.94
2022-09-12T14:18:04.173Z,41.26
2022-09-12T14:19:12.432Z,41.22
2022-09-12T14:20:18.607Z,41.28
2022-09-12T14:21:36.808Z,41.31
2022-09-12T14:22:41.584Z,41.28
2022-09-12T14:23:49.039Z,41.38
2022-09-12T14:24:54.722Z,41.61
2022-09-12T14:26:02.703Z,41.69
2022-09-12T14:27:06.637Z,41.88
2022-09-12T14:28:14.890Z,41.72
2022-09-12T14:29:19.913Z,41.44
2022-09-12T14:30:34.561Z,41.35
2022-09-12T14:31:39.706Z,41.46
2022-09-12T14:32:43.392Z,41.39
2022-09-12T14:33:49.816Z,41.36
2022-09-12T14:35:11.969Z,41.39
2022-09-12T14:36:42.359Z,41.08
2022-09-12T14:37:51.702Z,41.41
2022-09-12T14:39:05.813Z,41.15
2022-09-12T14:40:24.171Z,41.04
2022-09-12T14:41:38.744Z,40.89
2022-09-12T14:42:43.410Z,41.00
2022-09-12T14:43:52.804Z,41.00
2022-09-12T14:45:17.227Z,41.08
2022-09-12T14:46:33.062Z,41.11
2022-09-12T14:47:44.521Z,41.37
2022-09-12T14:49:08.275Z,41.30
2022-09-12T14:50:29.090Z,41.43
2022-09-12T14:51:36.651Z,41.25
2022-09-12T14:52:40.626Z,41.38
2022-09-12T14:53:50.011Z,41.32
2022-09-12T14:55:25.423Z,41.56
2022-09-12T14:56:55.190Z,41.49
2022-09-12T14:58:31.818Z,41.47
2022-09-12T14:59:35.181Z,41.59
2022-09-12T15:00:57.271Z,41.85
2022-09-12T15:02:20.022Z,41.65
2022-09-12T15:03:52.068Z,41.63
2022-09-12T15:05:04.478Z,41.53
2022-09-12T15:06:32.286Z,41.45
2022-09-12T15:07:53.844Z,41.51
2022-09-12T15:09:14.377Z,41.59
2022-09-12T15:10:44.650Z,41.69
2022-09-12T15:11:48.280Z,41.76
2022-09-12T15:13:14.674Z,41.71
2022-09-12T15:14:18.697Z,42.03
2022-09-12T15:15:22.201Z,41.89
2022-09-12T15:16:26.067Z,42.03
2022-09-12T15:17:30.603Z,42.05
2022-09-12T15:18:37.318Z,41.95
2022-09-12T15:19:40.756Z,41.87
2022-09-12T15:20:48.247Z,41.77
2022-09-12T15:21:51.929Z,41.85
2022-09-12T15:22:55.613Z,41.88
2022-09-12T15:23:59.320Z,41.93
2022-09-12T15:25:05.058Z,42.05
2022-09-12T15:26:30.649Z,42.07
2022-09-12T15:27:34.613Z,42.03
2022-09-12T15:28:38.209Z,42.04
2022-09-12T15:29:41.819Z,41.86
2022-09-12T15:30:50.692Z,41.98
2022-09-12T15:31:54.481Z,41.84
2022-09-12T15:33:00.526Z,41.77
2022-09-12T15:34:04.188Z,41.75
2022-09-12T15:35:31.721Z,41.75
2022-09-12T15:36:35.155Z,41.76
2022-09-12T15:37:38.949Z,41.89
2022-09-12T15:38:43.113Z,41.79
2022-09-12T15:39:47.664Z,41.91
2022-09-12T15:40:55.936Z,41.77
2022-09-12T15:42:00.438Z,41.74
2022-09-12T15:43:04.160Z,41.83
2022-09-12T15:44:14.256Z,41.89
2022-09-12T15:45:28.041Z,41.61
2022-09-12T15:46:31.807Z,41.96
2022-09-12T15:47:35.338Z,41.96
2022-09-12T15:48:39.468Z,42.09
2022-09-12T15:49:43.046Z,41.92
2022-09-12T15:50:47.161Z,42.09
2022-09-12T15:51:50.635Z,42.12
2022-09-12T15:52:55.801Z,42.25
2022-09-12T15:54:01.779Z,42.21
2022-09-12T15:55:10.451Z,42.42
2022-09-12T15:56:17.604Z,42.54
2022-09-12T15:57:21.463Z,42.57
2022-09-12T15:58:25.002Z,42.56
2022-09-12T15:59:29.106Z,42.50
2022-09-12T16:00:32.693Z,42.56
2022-09-12T16:01:36.537Z,42.70
2022-09-12T16:02:40.560Z,42.69
2022-09-12T16:03:48.096Z,42.56
2022-09-12T16:04:54.768Z,42.76
2022-09-12T16:06:02.358Z,43.03
2022-09-12T16:07:06.014Z,42.99
2022-09-12T16:08:09.516Z,42.94
2022-09-12T16:09:20.079Z,43.14
2022-09-12T16:10:29.011Z,43.10
2022-09-12T16:11:33.139Z,43.39
2022-09-12T16:12:36.749Z,43.32
2022-09-12T16:13:40.669Z,43.44
2022-09-12T16:14:44.805Z,43.60
2022-09-12T16:15:48.795Z,43.65
2022-09-12T16:16:58.018Z,43.67
2022-09-12T16:18:01.910Z,43.78
2022-09-12T16:19:06.663Z,43.94
2022-09-12T16:20:11.659Z,44.02
2022-09-12T16:21:16.119Z,44.07
2022-09-12T16:22:19.744Z,44.11
2022-09-12T16:23:25.241Z,44.32
2022-09-12T16:24:28.968Z,44.27
2022-09-12T16:25:33.745Z,44.53
2022-09-12T16:26:37.399Z,44.63
2022-09-12T16:27:41.444Z,44.51
2022-09-12T16:28:45.664Z,44.79
2022-09-12T16:29:49.340Z,44.73
2022-09-12T16:31:02.287Z,44.92
2022-09-12T16:32:06.260Z,44.75
2022-09-12T16:33:09.701Z,45.23
2022-09-12T16:34:13.950Z,45.14
2022-09-12T16:35:17.739Z,45.29
2022-09-12T16:36:23.310Z,45.35
2022-09-12T16:37:26.985Z,45.70
2022-09-12T16:38:31.812Z,45.57
2022-09-12T16:39:36.307Z,45.99
2022-09-12T16:40:40.106Z,45.91
2022-09-12T16:41:43.634Z,46.14
2022-09-12T16:42:50.156Z,46.08
2022-09-12T16:43:54.630Z,46.32
2022-09-12T16:44:58.518Z,46.30
2022-09-12T16:46:10.202Z,46.44
2022-09-12T16:47:15.457Z,46.36
2022-09-12T16:48:21.479Z,46.65
2022-09-12T16:49:25.057Z,46.63
2022-09-12T16:50:29.531Z,46.78
2022-09-12T16:51:38.084Z,46.94
2022-09-12T16:52:41.557Z,47.27
2022-09-12T16:53:45.152Z,47.01
2022-09-12T16:54:49.110Z,47.36
2022-09-12T16:55:52.910Z,47.39
2022-09-12T16:56:56.689Z,47.65
2022-09-12T16:58:03.150Z,47.49
2022-09-12T16:59:08.896Z,47.57
2022-09-12T17:00:12.914Z,47.78
2022-09-12T17:01:26.113Z,47.90
2022-09-12T17:02:29.975Z,48.00
2022-09-12T17:03:36.166Z,47.73
2022-09-12T17:04:40.792Z,48.11
2022-09-12T17:05:47.350Z,48.22
2022-09-12T17:06:51.557Z,48.25
2022-09-12T17:07:55.384Z,48.72
2022-09-12T17:09:01.618Z,48.86
2022-09-12T17:10:05.715Z,49.00
2022-09-12T17:11:13.577Z,49.19
2022-09-12T17:12:20.815Z,49.25
2022-09-12T17:13:41.132Z,49.46
2022-09-12T17:14:50.928Z,49.41
2022-09-12T17:15:54.576Z,49.76
2022-09-12T17:16:58.538Z,49.77
2022-09-12T17:18:02.116Z,50.03
2022-09-12T17:19:07.801Z,50.21
2022-09-12T17:20:11.349Z,50.10
2022-09-12T17:21:15.506Z,50.36
2022-09-12T17:22:19.263Z,50.42
2022-09-12T17:23:23.447Z,50.58
2022-09-12T17:24:27.479Z,50.69
2022-09-12T17:25:31.050Z,50.83
2022-09-12T17:26:34.882Z,51.02
2022-09-12T17:27:38.380Z,51.12
2022-09-12T17:28:43.034Z,51.15
2022-09-12T17:29:46.662Z,51.60
2022-09-12T17:31:02.650Z,51.67
2022-09-12T17:32:06.311Z,51.61
2022-09-12T17:33:10.184Z,51.88
2022-09-12T17:34:14.726Z,51.78
2022-09-12T17:35:18.574Z,51.89
2022-09-12T17:36:22.925Z,51.93
2022-09-12T17:37:26.389Z,52.14
2022-09-12T17:38:34.873Z,52.13
2022-09-12T17:39:38.670Z,52.17
2022-09-12T17:40:58.418Z,52.31
2022-09-12T17:42:02.811Z,52.33
2022-09-12T17:43:06.470Z,52.50
2022-09-12T17:44:13.562Z,52.75
2022-09-12T17:45:18.594Z,52.89
2022-09-12T17:46:32.005Z,52.79
2022-09-12T17:47:35.684Z,52.99
2022-09-12T17:48:39.241Z,52.91
2022-09-12T17:49:45.035Z,53.16
2022-09-12T17:50:48.937Z,53.29
2022-09-12T17:51:52.530Z,53.19
2022-09-12T17:52:56.313Z,53.43
2022-09-12T17:54:17.347Z,53.68
2022-09-12T17:55:21.094Z,53.72
2022-09-12T17:56:25.120Z,53.83
2022-09-12T17:57:28.830Z,53.74
2022-09-12T17:58:33.959Z,54.16
2022-09-12T17:59:37.781Z,54.26
2022-09-12T18:01:02.857Z,54.50
2022-09-12T18:02:13.115Z,54.54
2022-09-12T18:03:22.839Z,54.79
2022-09-12T18:04:27.738Z,54.81
2022-09-12T18:05:31.239Z,54.95
2022-09-12T18:06:36.378Z,54.88
2022-09-12T18:07:44.069Z,55.13
2022-09-12T18:08:47.989Z,55.21
2022-09-12T18:09:52.246Z,55.46
2022-09-12T18:11:05.857Z,55.41
2022-09-12T18:12:10.851Z,55.60
2022-09-12T18:13:15.528Z,55.56
2022-09-12T18:14:20.424Z,55.75
2022-09-12T18:15:24.145Z,55.74
2022-09-12T18:16:31.667Z,55.99
2022-09-12T18:17:35.344Z,56.15
2022-09-12T18:18:39.717Z,56.15
2022-09-12T18:19:44.993Z,56.10
2022-09-12T18:20:51.712Z,56.32
2022-09-12T18:21:57.008Z,56.47
2022-09-12T18:23:00.967Z,56.66
2022-09-12T18:24:07.759Z,56.80
2022-09-12T18:25:12.079Z,56.79
2022-09-12T18:26:15.781Z,57.15
2022-09-12T18:27:19.514Z,57.02
2022-09-12T18:28:23.439Z,57.05
2022-09-12T18:29:28.293Z,56.99
2022-09-12T18:30:32.217Z,57.17
2022-09-12T18:31:36.141Z,57.32
2022-09-12T18:32:40.300Z,57.40
2022-09-12T18:33:44.443Z,57.44
2022-09-12T18:34:48.684Z,57.53
2022-09-12T18:35:53.635Z,57.52
2022-09-12T18:36:57.343Z,57.97
2022-09-12T18:38:01.294Z,57.87
2022-09-12T18:39:05.101Z,57.94